createdAt,value
2022-12-08T00:00:20.907Z,0.00
2022-12-08T00:01:20.798Z,0.00
2022-12-08T00:02:20.817Z,0.00
2022-12-08T00:03:20.862Z,0.00
2022-12-08T00:04:20.524Z,0.00
2022-12-08T00:05:20.461Z,0.00
2022-12-08T00:06:20.449Z,0.00
2022-12-08T00:07:20.355Z,0.00
2022-12-08T00:08:20.315Z,0.00
2022-12-08T00:09:20.170Z,0.00
2022-12-08T00:10:47.708Z,0.00
2022-12-08T00:11:20.056Z,0.00
2022-12-08T00:12:20.012Z,0.00
2022-12-08T00:13:19.896Z,0.00
2022-12-08T00:14:19.826Z,0.00
2022-12-08T00:15:19.794Z,0.00
2022-12-08T00:16:19.735Z,0.00
2022-12-08T00:17:19.590Z,0.00
2022-12-08T00:18:19.611Z,0.00
2022-12-08T00:19:19.455Z,0.00
2022-12-08T00:20:19.428Z,0.00
2022-12-08T00:21:19.357Z,0.00
2022-12-08T00:22:19.297Z,0.00
2022-12-08T00:23:19.208Z,0.00
2022-12-08T00:24:19.105Z,0.00
2022-12-08T00:25:19.020Z,0.00
2022-12-08T00:26:18.984Z,0.00
2022-12-08T00:27:18.942Z,0.00
2022-12-08T00:28:18.867Z,0.00
2022-12-08T00:29:18.792Z,0.00
2022-12-08T00:30:18.670Z,0.00
2022-12-08T00:31:18.700Z,0.00
2022-12-08T00:32:18.706Z,0.00
2022-12-08T00:33:18.614Z,0.00
2022-12-08T00:34:18.400Z,0.00
2022-12-08T00:35:18.370Z,0.00
2022-12-08T00:36:18.284Z,0.00
2022-12-08T00:37:18.187Z,0.00
2022-12-08T00:38:18.171Z,0.00
2022-12-08T00:39:18.100Z,0.00
2022-12-08T00:40:17.993Z,0.00
2022-12-08T00:41:18.008Z,0.00
2022-12-08T00:42:17.831Z,0.00
2022-12-08T00:43:17.830Z,0.00
2022-12-08T00:44:17.762Z,0.00
2022-12-08T00:45:17.626Z,0.00
2022-12-08T00:46:17.650Z,0.00
2022-12-08T00:47:22.119Z,0.00
2022-12-08T00:48:17.437Z,0.00
2022-12-08T00:49:17.319Z,0.00
2022-12-08T00:50:17.292Z,0.00
2022-12-08T00:51:17.237Z,0.00
2022-12-08T00:52:17.135Z,0.00
2022-12-08T00:53:17.045Z,0.00
2022-12-08T00:54:16.995Z,0.00
2022-12-08T00:55:17.042Z,0.00
2022-12-08T00:56:16.904Z,0.00
2022-12-08T00:57:16.832Z,0.00
2022-12-08T00:58:16.680Z,0.00
2022-12-08T00:59:16.628Z,0.00
2022-12-08T01:00:16.565Z,0.00
2022-12-08T01:01:16.626Z,0.00
2022-12-08T01:02:16.440Z,0.00
2022-12-08T01:03:16.407Z,0.00
2022-12-08T01:04:16.314Z,0.00
2022-12-08T01:05:16.188Z,0.00
2022-12-08T01:06:16.157Z,0.00
2022-12-08T01:07:16.149Z,0.00
2022-12-08T01:08:16.032Z,0.00
2022-12-08T01:09:16.013Z,0.00
2022-12-08T01:10:15.878Z,0.00
2022-12-08T01:11:15.883Z,0.00
2022-12-08T01:12:15.738Z,0.00
2022-12-08T01:13:15.658Z,0.00
2022-12-08T01:14:15.613Z,0.00
2022-12-08T01:15:15.576Z,0.00
2022-12-08T01:16:15.450Z,0.00
2022-12-08T01:17:15.429Z,0.00
2022-12-08T01:18:15.317Z,0.00
2022-12-08T01:19:15.207Z,0.00
2022-12-08T01:20:15.278Z,0.00
2022-12-08T01:21:15.108Z,0.00
2022-12-08T01:22:15.138Z,0.00
2022-12-08T01:23:15.018Z,0.00
2022-12-08T01:24:14.884Z,0.00
2022-12-08T01:25:14.815Z,0.00
2022-12-08T01:26:14.828Z,0.00
2022-12-08T01:27:14.644Z,0.00
2022-12-08T01:28:14.630Z,0.00
2022-12-08T01:29:14.532Z,0.00
2022-12-08T01:30:14.465Z,0.00
2022-12-08T01:31:14.410Z,0.00
2022-12-08T01:32:14.294Z,0.00
2022-12-08T01:33:14.199Z,0.00
2022-12-08T01:34:14.155Z,0.00
2022-12-08T01:35:14.110Z,0.00
2022-12-08T01:36:14.060Z,0.00
2022-12-08T01:37:13.979Z,0.00
2022-12-08T01:38:13.932Z,0.00
2022-12-08T01:39:13.896Z,0.00
2022-12-08T01:40:13.899Z,0.00
2022-12-08T01:41:13.655Z,0.00
2022-12-08T01:42:13.696Z,0.00
2022-12-08T01:43:13.507Z,0.00
2022-12-08T01:44:13.438Z,0.00
2022-12-08T01:45:13.433Z,0.00
2022-12-08T01:46:13.402Z,0.00
2022-12-08T01:47:13.278Z,0.00
2022-12-08T01:48:13.290Z,0.00
2022-12-08T01:49:13.149Z,0.00
2022-12-08T01:50:13.123Z,0.00
2022-12-08T01:51:12.945Z,0.00
2022-12-08T01:52:12.889Z,0.00
2022-12-08T01:53:12.786Z,0.00
2022-12-08T01:54:12.920Z,0.00
2022-12-08T01:55:12.677Z,0.00
2022-12-08T01:56:12.575Z,0.00
2022-12-08T01:57:12.597Z,0.00
2022-12-08T01:58:12.435Z,0.00
2022-12-08T01:59:12.417Z,0.00
2022-12-08T02:00:12.322Z,0.00
2022-12-08T02:01:12.323Z,0.00
2022-12-08T02:02:12.214Z,0.00
2022-12-08T02:03:12.104Z,0.00
2022-12-08T02:04:12.044Z,0.00
2022-12-08T02:05:12.014Z,0.00
2022-12-08T02:06:11.882Z,0.00
2022-12-08T02:07:11.832Z,0.00
2022-12-08T02:08:11.819Z,0.00
2022-12-08T02:09:11.665Z,0.00
2022-12-08T02:10:11.599Z,0.00
2022-12-08T02:11:11.517Z,0.00
2022-12-08T02:12:11.508Z,0.00
2022-12-08T02:13:11.433Z,0.00
2022-12-08T02:14:11.326Z,0.00
2022-12-08T02:15:11.259Z,0.00
2022-12-08T02:16:11.254Z,0.00
2022-12-08T02:17:11.099Z,0.00
2022-12-08T02:18:11.037Z,0.00
2022-12-08T02:19:31.949Z,0.00
2022-12-08T02:20:10.882Z,0.00
2022-12-08T02:21:10.812Z,0.00
2022-12-08T02:22:10.833Z,0.00
2022-12-08T02:23:10.753Z,0.00
2022-12-08T02:24:10.640Z,0.00
2022-12-08T02:25:10.532Z,0.00
2022-12-08T02:26:10.541Z,0.00
2022-12-08T02:27:10.424Z,0.00
2022-12-08T02:28:10.319Z,0.00
2022-12-08T02:29:10.261Z,0.00
2022-12-08T02:30:10.180Z,0.00
2022-12-08T02:31:10.205Z,0.00
2022-12-08T02:32:10.194Z,0.00
2022-12-08T02:33:10.032Z,0.00
2022-12-08T02:34:09.912Z,0.00
2022-12-08T02:35:09.825Z,0.00
2022-12-08T02:36:09.795Z,0.00
2022-12-08T02:37:09.707Z,0.00
2022-12-08T02:38:09.647Z,0.00
2022-12-08T02:39:09.524Z,0.00
2022-12-08T02:40:09.452Z,0.00
2022-12-08T02:41:09.525Z,0.00
2022-12-08T02:42:09.365Z,0.00
2022-12-08T02:43:09.266Z,0.00
2022-12-08T02:44:09.256Z,0.00
2022-12-08T02:45:09.119Z,0.00
2022-12-08T02:46:09.141Z,0.00
2022-12-08T02:47:08.998Z,0.00
2022-12-08T02:48:08.889Z,0.00
2022-12-08T02:49:08.908Z,0.00
2022-12-08T02:50:08.771Z,0.00
2022-12-08T02:51:08.701Z,0.00
2022-12-08T02:52:08.673Z,0.00
2022-12-08T02:53:29.816Z,0.00
2022-12-08T02:54:08.495Z,0.00
2022-12-08T02:55:08.406Z,0.00
2022-12-08T02:56:08.329Z,0.00
2022-12-08T02:57:08.242Z,0.00
2022-12-08T02:58:08.214Z,0.00
2022-12-08T02:59:08.158Z,0.00
2022-12-08T03:00:08.365Z,0.00
2022-12-08T03:01:08.003Z,0.00
2022-12-08T03:02:08.010Z,0.00
2022-12-08T03:03:07.877Z,0.00
2022-12-08T03:04:07.754Z,0.00
2022-12-08T03:05:07.700Z,0.00
2022-12-08T03:06:07.647Z,0.00
2022-12-08T03:07:07.555Z,0.00
2022-12-08T03:08:07.741Z,0.00
2022-12-08T03:09:07.408Z,0.00
2022-12-08T03:10:07.537Z,0.00
2022-12-08T03:11:07.366Z,0.00
2022-12-08T03:12:07.224Z,0.00
2022-12-08T03:13:07.181Z,0.00
2022-12-08T03:14:07.059Z,0.00
2022-12-08T03:15:07.024Z,0.00
2022-12-08T03:16:07.006Z,0.00
2022-12-08T03:17:06.935Z,0.00
2022-12-08T03:18:06.743Z,0.00
2022-12-08T03:19:06.749Z,0.00
2022-12-08T03:20:06.894Z,0.00
2022-12-08T03:21:06.566Z,0.00
2022-12-08T03:22:06.467Z,0.00
2022-12-08T03:23:06.415Z,0.00
2022-12-08T03:24:06.341Z,0.00
2022-12-08T03:25:06.289Z,0.00
2022-12-08T03:26:06.207Z,0.00
2022-12-08T03:27:06.106Z,0.00
2022-12-08T03:28:06.076Z,0.00
2022-12-08T03:29:05.995Z,0.00
2022-12-08T03:30:06.132Z,0.00
2022-12-08T03:31:05.900Z,0.00
2022-12-08T03:32:05.789Z,0.00
2022-12-08T03:33:05.702Z,0.00
2022-12-08T03:34:05.632Z,0.00
2022-12-08T03:35:05.554Z,0.00
2022-12-08T03:36:05.513Z,0.00
2022-12-08T03:37:05.426Z,0.00
2022-12-08T03:38:05.361Z,0.00
2022-12-08T03:39:05.320Z,0.00
2022-12-08T03:40:05.445Z,0.00
2022-12-08T03:41:05.136Z,0.00
2022-12-08T03:42:05.052Z,0.00
2022-12-08T03:43:05.098Z,0.00
2022-12-08T03:44:04.963Z,0.00
2022-12-08T03:45:04.852Z,0.00
2022-12-08T03:46:04.831Z,0.00
2022-12-08T03:47:04.757Z,0.00
2022-12-08T03:48:04.643Z,0.00
2022-12-08T03:49:04.540Z,0.00
2022-12-08T03:50:04.686Z,0.00
2022-12-08T03:51:04.422Z,0.00
2022-12-08T03:52:04.366Z,0.00
2022-12-08T03:53:04.272Z,0.00
2022-12-08T03:54:04.241Z,0.00
2022-12-08T03:55:04.143Z,0.00
2022-12-08T03:56:04.057Z,0.00
2022-12-08T03:57:04.015Z,0.00
2022-12-08T03:58:03.948Z,0.00
2022-12-08T03:59:03.870Z,0.00
2022-12-08T04:00:04.310Z,0.00
2022-12-08T04:01:03.738Z,0.00
2022-12-08T04:02:03.671Z,0.00
2022-12-08T04:03:03.662Z,0.00
2022-12-08T04:04:03.486Z,0.00
2022-12-08T04:05:03.492Z,0.00
2022-12-08T04:06:03.346Z,0.00
2022-12-08T04:07:03.323Z,0.00
2022-12-08T04:08:03.283Z,0.00
2022-12-08T04:09:03.155Z,0.00
2022-12-08T04:10:03.657Z,0.00
2022-12-08T04:11:03.018Z,0.00
2022-12-08T04:12:02.987Z,0.00
2022-12-08T04:13:02.854Z,0.00
2022-12-08T04:14:02.811Z,0.00
2022-12-08T04:15:02.743Z,0.00
2022-12-08T04:16:02.783Z,0.00
2022-12-08T04:17:02.549Z,0.00
2022-12-08T04:18:02.525Z,0.00
2022-12-08T04:19:02.537Z,0.00
2022-12-08T04:20:02.856Z,0.00
2022-12-08T04:21:02.288Z,0.00
2022-12-08T04:22:02.257Z,0.00
2022-12-08T04:23:02.164Z,0.00
2022-12-08T04:24:02.096Z,0.00
2022-12-08T04:25:02.048Z,0.00
2022-12-08T04:26:01.937Z,0.00
2022-12-08T04:27:01.909Z,0.00
2022-12-08T04:28:01.790Z,0.00
2022-12-08T04:29:01.736Z,0.00
2022-12-08T04:30:01.983Z,0.00
2022-12-08T04:31:01.646Z,0.00
2022-12-08T04:32:01.605Z,0.00
2022-12-08T04:33:01.453Z,0.00
2022-12-08T04:34:01.345Z,0.00
2022-12-08T04:35:01.326Z,0.00
2022-12-08T04:36:01.252Z,0.00
2022-12-08T04:37:01.182Z,0.00
2022-12-08T04:38:01.072Z,0.00
2022-12-08T04:39:00.986Z,0.00
2022-12-08T04:40:01.000Z,0.00
2022-12-08T04:41:00.873Z,0.00
2022-12-08T04:42:00.776Z,0.00
2022-12-08T04:43:00.710Z,0.00
2022-12-08T04:44:00.684Z,0.00
2022-12-08T04:45:00.640Z,0.00
2022-12-08T04:46:00.495Z,0.00
2022-12-08T04:47:00.463Z,0.00
2022-12-08T04:48:00.409Z,0.00
2022-12-08T04:49:00.288Z,0.00
2022-12-08T04:50:00.292Z,0.00
2022-12-08T04:51:00.142Z,0.00
2022-12-08T04:52:00.220Z,0.00
2022-12-08T04:52:59.993Z,0.00
2022-12-08T04:53:59.942Z,0.00
2022-12-08T04:54:59.869Z,0.00
2022-12-08T04:55:59.856Z,0.00
2022-12-08T04:56:59.841Z,0.00
2022-12-08T04:57:59.656Z,0.00
2022-12-08T04:58:59.567Z,0.00
2022-12-08T04:59:59.487Z,0.00
2022-12-08T05:00:59.519Z,0.00
2022-12-08T05:01:59.543Z,0.00
2022-12-08T05:02:59.403Z,0.00
2022-12-08T05:03:59.223Z,0.00
2022-12-08T05:04:59.205Z,0.00
2022-12-08T05:05:59.074Z,0.00
2022-12-08T05:06:58.986Z,0.00
2022-12-08T05:07:58.996Z,0.00
2022-12-08T05:08:58.882Z,0.00
2022-12-08T05:09:58.788Z,0.00
2022-12-08T05:10:58.753Z,0.00
2022-12-08T05:11:58.659Z,0.00
2022-12-08T05:12:58.549Z,0.00
2022-12-08T05:13:58.488Z,0.00
2022-12-08T05:14:58.459Z,0.00
2022-12-08T05:15:58.487Z,0.00
2022-12-08T05:16:58.287Z,0.00
2022-12-08T05:17:58.199Z,0.00
2022-12-08T05:18:58.194Z,0.00
2022-12-08T05:19:58.091Z,0.00
2022-12-08T05:20:57.999Z,0.00
2022-12-08T05:21:58.002Z,0.00
2022-12-08T05:22:57.873Z,0.00
2022-12-08T05:23:57.822Z,0.00
2022-12-08T05:24:57.812Z,0.00
2022-12-08T05:25:57.777Z,0.00
2022-12-08T05:26:57.610Z,0.00
2022-12-08T05:28:17.727Z,0.00
2022-12-08T05:28:57.426Z,0.00
2022-12-08T05:29:57.375Z,0.00
2022-12-08T05:30:57.330Z,0.00
2022-12-08T05:31:57.328Z,0.00
2022-12-08T05:32:57.169Z,0.00
2022-12-08T05:34:02.450Z,0.00
2022-12-08T05:34:57.084Z,0.00
2022-12-08T05:35:56.932Z,0.00
2022-12-08T05:36:56.853Z,0.00
2022-12-08T05:37:56.820Z,0.00
2022-12-08T05:38:56.746Z,0.00
2022-12-08T05:39:56.658Z,0.00
2022-12-08T05:40:56.572Z,0.00
2022-12-08T05:41:56.494Z,0.00
2022-12-08T05:42:56.467Z,0.00
2022-12-08T05:43:56.372Z,0.00
2022-12-08T05:44:56.373Z,0.00
2022-12-08T05:45:56.267Z,0.00
2022-12-08T05:46:56.185Z,0.00
2022-12-08T05:47:56.089Z,0.00
2022-12-08T05:48:56.006Z,0.00
2022-12-08T05:49:55.974Z,0.00
2022-12-08T05:50:55.867Z,0.00
2022-12-08T05:51:55.844Z,0.00
2022-12-08T05:52:55.764Z,0.00
2022-12-08T05:53:55.675Z,0.00
2022-12-08T05:54:55.582Z,0.00
2022-12-08T05:55:55.500Z,0.00
2022-12-08T05:56:55.477Z,0.00
2022-12-08T05:57:55.376Z,0.00
2022-12-08T05:58:55.337Z,0.00
2022-12-08T05:59:55.246Z,0.00
2022-12-08T06:00:55.165Z,0.00
2022-12-08T06:01:55.143Z,0.00
2022-12-08T06:02:55.130Z,0.00
2022-12-08T06:03:54.994Z,0.00
2022-12-08T06:04:54.909Z,0.00
2022-12-08T06:05:54.837Z,0.00
2022-12-08T06:06:54.720Z,0.00
2022-12-08T06:07:54.757Z,0.00
2022-12-08T06:08:54.621Z,0.00
2022-12-08T06:09:54.562Z,0.00
2022-12-08T06:10:54.454Z,0.00
2022-12-08T06:11:54.411Z,0.00
2022-12-08T06:12:54.328Z,0.00
2022-12-08T06:13:54.236Z,0.00
2022-12-08T06:14:54.175Z,0.00
2022-12-08T06:15:54.185Z,0.00
2022-12-08T06:16:54.152Z,0.00
2022-12-08T06:17:53.974Z,0.00
2022-12-08T06:18:53.884Z,0.00
2022-12-08T06:19:53.875Z,0.00
2022-12-08T06:20:53.761Z,0.00
2022-12-08T06:21:53.695Z,0.00
2022-12-08T06:22:53.585Z,0.00
2022-12-08T06:23:53.537Z,0.00
2022-12-08T06:24:53.523Z,0.00
2022-12-08T06:25:53.473Z,0.00
2022-12-08T06:26:53.401Z,0.00
2022-12-08T06:27:53.324Z,0.00
2022-12-08T06:28:53.215Z,0.00
2022-12-08T06:29:53.113Z,0.00
2022-12-08T06:30:53.056Z,0.00
2022-12-08T06:31:53.077Z,0.00
2022-12-08T06:32:52.884Z,0.00
2022-12-08T06:33:52.865Z,0.00
2022-12-08T06:34:52.805Z,0.00
2022-12-08T06:35:52.778Z,0.00
2022-12-08T06:36:52.591Z,0.00
2022-12-08T06:37:52.950Z,0.00
2022-12-08T06:38:52.484Z,0.00
2022-12-08T06:39:52.402Z,0.00
2022-12-08T06:40:52.397Z,0.00
2022-12-08T06:41:52.319Z,0.00
2022-12-08T06:42:52.230Z,0.00
2022-12-08T06:43:52.274Z,0.00
2022-12-08T06:44:52.053Z,0.00
2022-12-08T06:45:52.032Z,0.00
2022-12-08T06:46:51.903Z,0.00
2022-12-08T06:47:51.902Z,0.00
2022-12-08T06:48:51.750Z,0.00
2022-12-08T06:49:51.708Z,0.00
2022-12-08T06:50:51.617Z,0.00
2022-12-08T06:51:51.547Z,0.00
2022-12-08T06:53:01.081Z,0.00
2022-12-08T06:53:51.435Z,0.00
2022-12-08T06:54:51.379Z,0.00
2022-12-08T06:55:59.086Z,0.00
2022-12-08T06:56:51.183Z,0.00
2022-12-08T06:57:53.967Z,0.00
2022-12-08T06:58:52.960Z,0.00
2022-12-08T06:59:50.988Z,0.00
2022-12-08T07:00:50.960Z,0.00
2022-12-08T07:01:50.938Z,0.00
2022-12-08T07:02:50.858Z,0.00
2022-12-08T07:03:50.736Z,0.00
2022-12-08T07:04:50.731Z,0.00
2022-12-08T07:05:50.610Z,0.00
2022-12-08T07:06:50.559Z,0.00
2022-12-08T07:07:50.545Z,0.00
2022-12-08T07:08:50.348Z,0.00
2022-12-08T07:09:50.288Z,0.00
2022-12-08T07:10:50.223Z,0.00
2022-12-08T07:11:50.160Z,0.00
2022-12-08T07:12:50.084Z,0.00
2022-12-08T07:13:50.038Z,0.00
2022-12-08T07:14:49.965Z,0.00
2022-12-08T07:15:49.881Z,0.00
2022-12-08T07:16:49.951Z,0.00
2022-12-08T07:17:53.584Z,0.00
2022-12-08T07:18:49.664Z,0.00
2022-12-08T07:19:49.615Z,0.00
2022-12-08T07:20:49.531Z,0.00
2022-12-08T07:21:49.488Z,0.00
2022-12-08T07:22:49.388Z,0.00
2022-12-08T07:23:54.279Z,0.00
2022-12-08T07:24:49.248Z,5.63
2022-12-08T07:25:49.285Z,5.63
2022-12-08T07:26:49.052Z,5.63
2022-12-08T07:27:49.117Z,5.63
2022-12-08T07:28:48.951Z,5.63
2022-12-08T07:29:48.983Z,5.63
2022-12-08T07:30:48.906Z,5.63
2022-12-08T07:31:48.812Z,5.63
2022-12-08T07:32:48.667Z,5.63
2022-12-08T07:33:48.589Z,5.63
2022-12-08T07:34:48.529Z,5.63
2022-12-08T07:35:49.392Z,5.63
2022-12-08T07:36:48.501Z,5.63
2022-12-08T07:37:48.292Z,5.63
2022-12-08T07:38:48.291Z,5.63
2022-12-08T07:39:48.217Z,5.63
2022-12-08T07:40:48.103Z,5.63
2022-12-08T07:41:48.029Z,5.63
2022-12-08T07:42:47.971Z,11.25
2022-12-08T07:43:48.049Z,11.25
2022-12-08T07:44:47.808Z,16.88
2022-12-08T07:45:47.803Z,16.88
2022-12-08T07:46:47.697Z,16.88
2022-12-08T07:47:47.826Z,16.88
2022-12-08T07:48:47.580Z,16.88
2022-12-08T07:49:47.500Z,16.88
2022-12-08T07:50:47.370Z,16.88
2022-12-08T07:51:47.295Z,11.25
2022-12-08T07:52:47.387Z,16.88
2022-12-08T07:53:53.233Z,16.88
2022-12-08T07:54:47.205Z,16.88
2022-12-08T07:55:47.094Z,16.88
2022-12-08T07:56:47.084Z,16.88
2022-12-08T07:57:46.882Z,16.88
2022-12-08T07:58:46.835Z,16.88
2022-12-08T07:59:46.755Z,16.88
2022-12-08T08:00:46.833Z,16.88
2022-12-08T08:01:52.789Z,11.25
2022-12-08T08:02:46.623Z,11.25
2022-12-08T08:03:46.533Z,11.25
2022-12-08T08:04:46.486Z,11.25
2022-12-08T08:05:46.338Z,11.25
2022-12-08T08:06:46.258Z,11.25
2022-12-08T08:07:46.296Z,11.25
2022-12-08T08:08:46.149Z,11.25
2022-12-08T08:09:46.068Z,11.25
2022-12-08T08:10:46.072Z,11.25
2022-12-08T08:12:01.124Z,11.25
2022-12-08T08:12:45.838Z,11.25
2022-12-08T08:13:45.768Z,11.25
2022-12-08T08:14:45.750Z,16.88
2022-12-08T08:15:45.692Z,22.50
2022-12-08T08:16:45.656Z,22.50
2022-12-08T08:17:45.583Z,16.88
2022-12-08T08:18:45.420Z,16.88
2022-12-08T08:19:45.525Z,11.25
2022-12-08T08:20:45.267Z,11.25
2022-12-08T08:21:46.297Z,11.25
2022-12-08T08:22:45.138Z,11.25
2022-12-08T08:23:45.107Z,5.63
2022-12-08T08:24:45.444Z,5.63
2022-12-08T08:25:44.928Z,16.88
2022-12-08T08:26:44.923Z,22.50
2022-12-08T08:27:44.809Z,33.75
2022-12-08T08:28:44.746Z,39.38
2022-12-08T08:29:44.627Z,45.00
2022-12-08T08:30:44.597Z,50.63
2022-12-08T08:31:44.525Z,56.25
2022-12-08T08:32:44.496Z,61.88
2022-12-08T08:33:44.487Z,73.13
2022-12-08T08:34:44.400Z,84.38
2022-12-08T08:35:44.264Z,84.38
2022-12-08T08:36:44.239Z,78.75
2022-12-08T08:37:48.621Z,73.13
2022-12-08T08:38:44.014Z,61.88
2022-12-08T08:39:44.083Z,61.88
2022-12-08T08:40:43.918Z,56.25
2022-12-08T08:41:43.829Z,50.63
2022-12-08T08:42:43.908Z,45.00
2022-12-08T08:43:43.751Z,33.75
2022-12-08T08:44:43.632Z,28.13
2022-12-08T08:45:43.575Z,28.13
2022-12-08T08:46:43.500Z,33.75
2022-12-08T08:47:43.352Z,39.38
2022-12-08T08:48:43.467Z,45.00
2022-12-08T08:49:43.279Z,50.63
2022-12-08T08:50:43.295Z,61.88
2022-12-08T08:51:43.085Z,67.50
2022-12-08T08:52:43.040Z,78.75
2022-12-08T08:53:43.078Z,90.00
2022-12-08T08:54:42.887Z,101.25
2022-12-08T08:55:42.821Z,112.50
2022-12-08T08:56:42.991Z,112.50
2022-12-08T08:57:42.696Z,118.13
2022-12-08T08:58:42.624Z,112.50
2022-12-08T08:59:42.529Z,123.75
2022-12-08T09:00:42.579Z,123.75
2022-12-08T09:01:42.586Z,118.13
2022-12-08T09:02:42.385Z,106.88
2022-12-08T09:03:42.300Z,95.63
2022-12-08T09:04:42.351Z,101.25
2022-12-08T09:05:42.174Z,106.88
2022-12-08T09:06:42.104Z,106.88
2022-12-08T09:07:42.037Z,101.25
2022-12-08T09:08:41.940Z,95.63
2022-12-08T09:09:41.887Z,95.63
2022-12-08T09:10:41.812Z,95.63
2022-12-08T09:11:41.900Z,95.63
2022-12-08T09:12:41.656Z,90.00
2022-12-08T09:13:41.599Z,78.75
2022-12-08T09:14:41.513Z,73.13
2022-12-08T09:15:41.460Z,67.50
2022-12-08T09:16:42.557Z,61.88
2022-12-08T09:17:41.273Z,67.50
2022-12-08T09:18:41.457Z,61.88
2022-12-08T09:19:41.181Z,61.88
2022-12-08T09:20:41.119Z,61.88
2022-12-08T09:21:41.032Z,61.88
2022-12-08T09:22:40.956Z,61.88
2022-12-08T09:23:40.876Z,56.25
2022-12-08T09:24:40.844Z,50.63
2022-12-08T09:25:40.711Z,45.00
2022-12-08T09:26:40.709Z,45.00
2022-12-08T09:27:40.619Z,45.00
2022-12-08T09:28:40.554Z,45.00
2022-12-08T09:29:40.491Z,45.00
2022-12-08T09:30:40.483Z,45.00
2022-12-08T09:31:40.393Z,50.63
2022-12-08T09:32:40.279Z,50.63
2022-12-08T09:33:40.201Z,50.63
2022-12-08T09:34:40.105Z,56.25
2022-12-08T09:35:40.029Z,56.25
2022-12-08T09:36:40.013Z,56.25
2022-12-08T09:37:39.884Z,56.25
2022-12-08T09:38:39.937Z,61.88
2022-12-08T09:39:39.760Z,67.50
2022-12-08T09:40:39.667Z,73.13
2022-12-08T09:41:46.377Z,78.75
2022-12-08T09:42:39.578Z,84.38
2022-12-08T09:43:39.623Z,84.38
2022-12-08T09:44:39.409Z,78.75
2022-12-08T09:45:39.373Z,78.75
2022-12-08T09:46:39.354Z,78.75
2022-12-08T09:47:39.190Z,73.13
2022-12-08T09:50:39.040Z,78.75
2022-12-08T09:51:39.397Z,78.75
2022-12-08T09:53:38.806Z,78.75
2022-12-08T09:54:38.854Z,78.75
2022-12-08T09:55:38.715Z,78.75
2022-12-08T09:56:38.556Z,73.13
2022-12-08T09:57:38.604Z,61.88
2022-12-08T09:58:38.440Z,56.25
2022-12-08T09:59:38.396Z,45.00
2022-12-08T10:00:38.322Z,39.38
2022-12-08T10:01:38.467Z,33.75
2022-12-08T10:02:38.161Z,22.50
2022-12-08T10:03:38.134Z,16.88
2022-12-08T10:04:38.095Z,11.25
2022-12-08T10:05:37.993Z,11.25
2022-12-08T10:06:37.894Z,16.88
2022-12-08T10:07:38.080Z,16.88
2022-12-08T10:08:37.789Z,16.88
2022-12-08T10:09:37.709Z,22.50
2022-12-08T10:10:37.611Z,22.50
2022-12-08T10:11:37.706Z,22.50
2022-12-08T10:12:39.627Z,22.50
2022-12-08T10:13:37.597Z,28.13
2022-12-08T10:14:37.563Z,45.00
2022-12-08T10:15:37.704Z,50.63
2022-12-08T10:16:37.338Z,39.38
2022-12-08T10:17:37.306Z,33.75
2022-12-08T10:18:37.180Z,39.38
2022-12-08T10:19:37.294Z,39.38
2022-12-08T10:20:37.082Z,39.38
2022-12-08T10:21:38.106Z,39.38
2022-12-08T10:22:42.854Z,45.00
2022-12-08T10:23:36.905Z,45.00
2022-12-08T10:24:36.666Z,50.63
2022-12-08T10:25:36.555Z,45.00
2022-12-08T10:26:36.523Z,50.63
2022-12-08T10:27:37.322Z,56.25
2022-12-08T10:28:41.367Z,56.25
2022-12-08T10:29:36.514Z,61.88
2022-12-08T10:30:36.465Z,67.50
2022-12-08T10:31:36.460Z,67.50
2022-12-08T10:32:36.272Z,61.88
2022-12-08T10:33:36.523Z,61.88
2022-12-08T10:34:36.382Z,61.88
2022-12-08T10:35:36.509Z,56.25
2022-12-08T10:36:36.683Z,56.25
2022-12-08T10:37:36.228Z,50.63
2022-12-08T10:38:36.219Z,50.63
2022-12-08T10:39:35.975Z,45.00
2022-12-08T10:40:39.242Z,39.38
2022-12-08T10:41:35.758Z,39.38
2022-12-08T10:42:35.606Z,39.38
2022-12-08T10:43:35.894Z,45.00
2022-12-08T10:44:35.357Z,45.00
2022-12-08T10:45:35.255Z,45.00
2022-12-08T10:46:35.108Z,45.00
2022-12-08T10:47:35.000Z,45.00
2022-12-08T10:48:35.109Z,45.00
2022-12-08T10:49:34.957Z,50.63
2022-12-08T10:50:34.819Z,56.25
2022-12-08T10:51:35.148Z,56.25
2022-12-08T10:52:34.707Z,56.25
2022-12-08T10:53:34.599Z,56.25
2022-12-08T10:54:34.502Z,56.25
2022-12-08T10:55:34.504Z,61.88
2022-12-08T10:56:34.423Z,67.50
2022-12-08T10:57:34.297Z,56.25
2022-12-08T10:58:34.233Z,50.63
2022-12-08T10:59:34.480Z,56.25
2022-12-08T11:00:34.266Z,56.25
2022-12-08T11:01:34.357Z,56.25
2022-12-08T11:02:34.092Z,56.25
2022-12-08T11:03:33.906Z,61.88
2022-12-08T11:04:33.901Z,56.25
2022-12-08T11:05:33.746Z,50.63
2022-12-08T11:06:33.840Z,56.25
2022-12-08T11:07:33.645Z,45.00
2022-12-08T11:08:33.599Z,39.38
2022-12-08T11:09:33.715Z,45.00
2022-12-08T11:10:33.421Z,56.25
2022-12-08T11:11:33.587Z,56.25
2022-12-08T11:12:33.320Z,56.25
2022-12-08T11:13:33.335Z,45.00
2022-12-08T11:14:33.135Z,39.38
2022-12-08T11:15:33.219Z,39.38
2022-12-08T11:16:33.469Z,33.75
2022-12-08T11:17:33.022Z,33.75
2022-12-08T11:18:32.912Z,33.75
2022-12-08T11:19:32.831Z,28.13
2022-12-08T11:20:32.699Z,22.50
2022-12-08T11:21:32.644Z,22.50
2022-12-08T11:22:32.565Z,22.50
2022-12-08T11:23:32.636Z,22.50
2022-12-08T11:24:37.371Z,22.50
2022-12-08T11:25:32.385Z,28.13
2022-12-08T11:26:32.643Z,33.75
2022-12-08T11:27:32.626Z,33.75
2022-12-08T11:28:32.639Z,33.75
2022-12-08T11:29:32.107Z,33.75
2022-12-08T11:30:32.206Z,28.13
2022-12-08T11:31:32.048Z,28.13
2022-12-08T11:32:31.896Z,28.13
2022-12-08T11:33:31.836Z,28.13
2022-12-08T11:34:31.769Z,28.13
2022-12-08T11:35:31.690Z,28.13
2022-12-08T11:36:31.620Z,28.13
2022-12-08T11:37:35.056Z,28.13
2022-12-08T11:38:31.453Z,33.75
2022-12-08T11:39:31.370Z,33.75
2022-12-08T11:40:31.286Z,33.75
2022-12-08T11:41:31.239Z,28.13
2022-12-08T11:42:31.163Z,28.13
2022-12-08T11:43:31.085Z,28.13
2022-12-08T11:44:31.015Z,33.75
2022-12-08T11:45:31.043Z,33.75
2022-12-08T11:46:31.163Z,33.75
2022-12-08T11:47:30.959Z,33.75
2022-12-08T11:48:30.808Z,28.13
2022-12-08T11:49:30.995Z,28.13
2022-12-08T11:50:31.045Z,33.75
2022-12-08T11:51:30.784Z,33.75
2022-12-08T11:52:31.208Z,33.75
2022-12-08T11:53:30.960Z,33.75
2022-12-08T11:54:30.479Z,39.38
2022-12-08T11:55:33.744Z,45.00
2022-12-08T11:56:30.312Z,45.00
2022-12-08T11:57:30.546Z,45.00
2022-12-08T11:58:30.327Z,45.00
2022-12-08T12:00:30.957Z,39.38
2022-12-08T12:01:29.841Z,33.75
2022-12-08T12:02:30.042Z,33.75
2022-12-08T12:03:30.007Z,33.75
2022-12-08T12:04:29.636Z,39.38
2022-12-08T12:05:40.147Z,28.13
2022-12-08T12:06:53.009Z,28.13
2022-12-08T12:07:29.421Z,28.13
2022-12-08T12:08:29.376Z,22.50
2022-12-08T12:09:29.303Z,22.50
2022-12-08T12:10:29.343Z,33.75
2022-12-08T12:11:29.332Z,33.75
2022-12-08T12:12:29.098Z,39.38
2022-12-08T12:13:29.046Z,45.00
2022-12-08T12:14:28.924Z,45.00
2022-12-08T12:15:28.875Z,50.63
2022-12-08T12:16:28.802Z,50.63
2022-12-08T12:17:28.702Z,39.38
2022-12-08T12:18:28.658Z,33.75
2022-12-08T12:19:28.578Z,39.38
2022-12-08T12:20:28.490Z,39.38
2022-12-08T12:21:28.427Z,45.00
2022-12-08T12:22:28.352Z,56.25
2022-12-08T12:23:28.354Z,61.88
2022-12-08T12:24:31.621Z,61.88
2022-12-08T12:25:28.143Z,61.88
2022-12-08T12:26:28.250Z,67.50
2022-12-08T12:27:28.052Z,73.13
2022-12-08T12:28:27.925Z,73.13
2022-12-08T12:29:27.911Z,61.88
2022-12-08T12:30:27.883Z,56.25
2022-12-08T12:31:27.792Z,56.25
2022-12-08T12:32:27.678Z,56.25
2022-12-08T12:33:27.632Z,56.25
2022-12-08T12:34:27.691Z,56.25
2022-12-08T12:35:27.788Z,61.88
2022-12-08T12:36:27.369Z,61.88
2022-12-08T12:37:27.355Z,56.25
2022-12-08T12:38:27.278Z,50.63
2022-12-08T12:39:27.185Z,50.63
2022-12-08T12:40:27.283Z,45.00
2022-12-08T12:41:27.032Z,39.38
2022-12-08T12:42:26.953Z,39.38
2022-12-08T12:43:26.880Z,33.75
2022-12-08T12:44:26.843Z,39.38
2022-12-08T12:45:26.867Z,39.38
2022-12-08T12:46:26.738Z,39.38
2022-12-08T12:47:26.601Z,45.00
2022-12-08T12:48:26.537Z,45.00
2022-12-08T12:49:26.784Z,50.63
2022-12-08T12:50:26.465Z,45.00
2022-12-08T12:51:26.362Z,45.00
2022-12-08T12:52:26.460Z,45.00
2022-12-08T12:53:26.199Z,39.38
2022-12-08T12:54:26.163Z,33.75
2022-12-08T12:55:26.048Z,33.75
2022-12-08T12:56:26.013Z,33.75
2022-12-08T12:57:25.949Z,39.38
2022-12-08T12:58:25.892Z,39.38
2022-12-08T12:59:25.959Z,39.38
2022-12-08T13:00:25.766Z,39.38
2022-12-08T13:01:26.136Z,45.00
2022-12-08T13:02:26.323Z,45.00
2022-12-08T13:03:25.541Z,56.25
2022-12-08T13:04:25.852Z,56.25
2022-12-08T13:05:25.585Z,50.63
2022-12-08T13:06:25.438Z,45.00
2022-12-08T13:07:25.240Z,50.63
2022-12-08T13:08:25.252Z,50.63
2022-12-08T13:09:25.131Z,50.63
2022-12-08T13:10:25.019Z,56.25